Nearby METAR Reports

 

EGMC - Southend-On-Sea, United Kingdom
Distance from station: NE 10km
Updated: 20/10/2019 03:50
Clear
Clear
 Wind from W
Wind: W 5 mph , 7 km/h
Temperature: 6°C
Wind Chill: 4°C
Dew Point: 6°C
Humidity: 100%
Barometer: 1006 hPa
Summary: Clear
Visibility: greater than 7 miles , 10 km
2019/10/20 02:50 EGMC 200250Z 26004KT CAVOK 06/06 Q1006
EGLC - London City Airp, United Kingdom
Distance from station: W 37km
Updated: 20/10/2019 04:01
unable to load EGLC data RC=
unable to load EGLC data RC=
 
EGKB - Biggin Hill, United Kingdom
Distance from station: WSW 45km
Updated: 19/10/2019 21:50
NOT Current
Clear
Clear
 Wind from SW
Wind: SW 6 mph , 9 km/h
Temperature: 8°C
Wind Chill: 6°C
Dew Point: 6°C
Humidity: 87%
Barometer: 1005 hPa
Summary: Clear
Visibility: greater than 7 miles , 10 km
2019/10/19 20:50 EGKB 192050Z 23005KT CAVOK 08/06 Q1005
 
EGSS - Stansted Airport, United Kingdom
Distance from station: NNW 48km
Updated: 20/10/2019 04:01
unable to load EGSS data RC=
unable to load EGSS data RC=
 
EGKK - London/Gatwick A, United Kingdom
Distance from station: SW 67km
Updated: 20/10/2019 03:50
Partly cloudy
Partly cloudy
 Wind from varies
Wind: varies 1 mph , 2 km/h
Temperature: 4°C
Dew Point: 4°C
Humidity: 100%
Barometer: 1006 hPa
Clouds: Partly cloudy
Visibility: 4 miles , 7 km
2019/10/20 02:50 EGKK 200250Z VRB01KT 7000 NSC 04/04 Q1006
EGMD - Lydd Airport, United Kingdom
Distance from station: SSE 67km
Updated: 20/10/2019 04:01
unable to load EGMD data RC=
unable to load EGMD data RC=
 
 
EGWU - Northolt Raf, United Kingdom
Distance from station: W 69km
Updated: 20/10/2019 02:50
Mostly cloudy
Mostly cloudy
 Wind from NNW
Wind: NNW 1 mph , 2 km/h
Clouds: Mostly cloudy
Visibility: 6 miles , 10 km
Cloud details: Mostly cloudy 30 m
2019/10/20 01:50 EGWU 200150Z AUTO 34001KT 9999 // BKN001/// 03/// Q1006
EGLL - London/Heathrow, United Kingdom
Distance from station: W 72km
Updated: 20/10/2019 04:01
unable to load EGLL data RC=
unable to load EGLL data RC=
 
EGUW - Wattisham Raf, United Kingdom
Distance from station: NNE 72km
Updated: 20/10/2019 02:50
Clear
Clear
 Wind from WSW
Wind: WSW 5 mph , 7 km/h
Temperature: 5°C
Wind Chill: 3°C
Dew Point: 5°C
Humidity: 100%
Barometer: 1005 hPa
Clouds: Clear
Visibility: 4 miles , 6 km
2019/10/20 01:50 EGUW 200150Z AUTO 25004KT 6000 NCD 05/05 Q1005
 
EGGW - Luton Airport, United Kingdom
Distance from station: WNW 76km
Updated: 20/10/2019 04:01
unable to load EGGW data RC=
unable to load EGGW data RC=
 
EGSC - Cambridge, United Kingdom
Distance from station: NNW 81km
Updated: 18/10/2019 17:50
NOT Current
Few Clouds
Few Clouds
 Wind from SSW
Wind: SSW 7 mph , 11 km/h
Temperature: 9°C
Wind Chill: 7°C
Dew Point: 7°C
Humidity: 87%
Barometer: 999 hPa
Clouds: Few Clouds
Visibility: 6 miles , 10 km
Cloud details: Few Clouds 549 m
2019/10/18 16:50 EGSC 181650Z 20006KT 9999 FEW018 09/07 Q0999